Zim Qingdao — A8IZ2 — position and weather

sailwx.info

Track history (hours):
 
Tides and Currents Weather Stations Pressure Air Temp Water Temp Dewpoint Dewpoint Depression Visibility Wind Speed Wind Dir Waves Ship Positions

Zim Qingdao

Last reported at 2017-May-29 18:28 UTC. Time now 2017-May-29 18:57 UTC.
Position N 37°57' E 023°36'.

Length 260.61 m; beam 32.25 m; draft 12.6 m.

Type: Ship (hazmat cat A). MMSI: 636012904.

Date/timePositionNaut miles runAvg speedWind from/ knotsBaromVisibWave heightAir tempDewpointWater temp
2017-May-29 18:28N 37°57' E 023°36'0 0.0
2017-May-29 17:58N 37°57' E 023°36'0 0.0
2017-May-29 17:28N 37°57' E 023°36'0 0.0
2017-May-29 16:58N 37°57' E 023°36'0 0.0
2017-May-29 16:28N 37°57' E 023°36'0 0.0
2017-May-29 15:58N 37°57' E 023°36'0 0.0
2017-May-29 15:25N 37°57' E 023°36'0 0.0
2017-May-29 14:58N 37°57' E 023°36'0 0.0
2017-May-29 14:28N 37°57' E 023°36'0 0.0
2017-May-29 13:28N 37°57' E 023°36'0 0.0
2017-May-29 12:58N 37°57' E 023°36'0 0.0
2017-May-29 12:28N 37°57' E 023°36'0 0.0
2017-May-29 11:58N 37°57' E 023°36'0 0.0
2017-May-29 11:28N 37°57' E 023°36'0 0.0
2017-May-29 10:58N 37°57' E 023°36'0 0.0
2017-May-29 10:28N 37°57' E 023°36'0 0.0
2017-May-29 09:58N 37°57' E 023°36'0 0.1
2017-May-29 09:28N 37°57' E 023°36'2 3.5
2017-May-29 09:00N 37°56' E 023°36'3 5.7
2017-May-29 08:30N 37°53' E 023°38'714.1
2017-May-29 08:00N 37°47' E 023°42'714.0
2017-May-29 07:30N 37°41' E 023°46'2414.1
2017-May-29 05:47N 37°43' E 024°17'75 2.0
2017-May-27 17:21N 37°41' E 025°51'1015.3
2017-May-27 16:42N 37°31' E 025°52'314.7
2017-May-27 16:30N 37°28' E 025°53'36315.0
2017-May-26 16:23N 34°04' E 032°03'616.5
2017-May-26 16:00N 34°01' E 032°09'816.7
2017-May-26 15:30N 33°57' E 032°18'1616.6
2017-May-26 14:34N 33°51' E 032°35'116.8
2017-May-26 14:30N 33°50' E 032°36'1716.7
2017-May-26 13:29N 33°43' E 032°55'816.4
2017-May-26 13:00N 33°39' E 033°03'3216.4
2017-May-26 11:03N 33°25' E 033°38'116.7
2017-May-26 11:00N 33°25' E 033°39'6016.3
2017-May-26 07:22N 32°59' E 034°43'616.4
2017-May-26 07:00N 32°56' E 034°49'816.5
2017-May-26 06:30N 32°53' E 034°58'4 8.5
2017-May-26 06:00N 32°49' E 035°01'0 0.3
2017-May-26 05:29N 32°49' E 035°01'0 0.0
2017-May-26 04:59N 32°49' E 035°01'0 0.0
2017-May-26 04:30N 32°49' E 035°01'0 0.0
2017-May-26 04:00N 32°49' E 035°01'0 0.0
2017-May-26 03:30N 32°49' E 035°01'0 0.0
2017-May-26 03:00N 32°49' E 035°01'0 0.0
2017-May-26 02:30N 32°49' E 035°01'0 0.0
2017-May-26 02:00N 32°49' E 035°01'0 0.0
2017-May-26 01:30N 32°49' E 035°01'0 0.0
2017-May-26 01:00N 32°49' E 035°01'0 0.0
2017-May-26 00:30N 32°49' E 035°01'0 0.0
2017-May-26 00:00N 32°49' E 035°01'0 0.0
2017-May-25 23:30N 32°49' E 035°01'0 0.0
2017-May-25 23:00N 32°49' E 035°01'0 0.0
2017-May-25 22:30N 32°49' E 035°01'0 0.0
2017-May-25 22:00N 32°49' E 035°01'0 0.0
2017-May-25 21:30N 32°49' E 035°01'0 0.0
2017-May-25 21:00N 32°49' E 035°01'0 0.0
2017-May-25 20:30N 32°49' E 035°01'0 0.0
2017-May-25 20:00N 32°49' E 035°01'0 0.0
2017-May-25 19:30N 32°49' E 035°01'0 0.0
2017-May-25 19:00N 32°49' E 035°01'0 0.0
2017-May-25 18:30N 32°49' E 035°01'0 0.0
2017-May-25 18:00N 32°49' E 035°01'0 0.0
2017-May-25 17:30N 32°49' E 035°01'0 0.0
2017-May-25 17:00N 32°49' E 035°01'0 0.0
2017-May-25 16:30N 32°49' E 035°01'0 0.0
2017-May-25 16:00N 32°49' E 035°01'0 0.0
2017-May-25 15:30N 32°49' E 035°01'0 0.0
2017-May-25 15:00N 32°49' E 035°01'0 0.0
2017-May-25 14:30N 32°49' E 035°01'0 0.0
2017-May-25 13:30N 32°49' E 035°01'0 0.0
2017-May-25 13:00N 32°49' E 035°01'0 0.0
2017-May-25 12:30N 32°49' E 035°01'0 0.0
2017-May-25 12:00N 32°49' E 035°01'0 0.0
2017-May-25 11:30N 32°49' E 035°01'0 0.0
2017-May-25 11:00N 32°49' E 035°01'0 0.0
2017-May-25 10:30N 32°49' E 035°01'0 0.0
2017-May-25 10:00N 32°49' E 035°01'0 0.0
2017-May-25 09:30N 32°49' E 035°01'0 0.0
2017-May-25 09:00N 32°49' E 035°01'0 0.0
2017-May-25 08:30N 32°49' E 035°01'0 0.0
2017-May-25 08:00N 32°49' E 035°01'0 0.0
2017-May-25 07:30N 32°49' E 035°01'0 0.0
2017-May-25 07:00N 32°49' E 035°01'0 0.0
2017-May-25 06:30N 32°49' E 035°01'0 0.0
2017-May-25 06:00N 32°49' E 035°01'0 0.0
2017-May-25 05:29N 32°49' E 035°01'0 0.0
2017-May-25 04:59N 32°49' E 035°01'0 0.0
2017-May-25 04:29N 32°49' E 035°01'0 0.0
2017-May-25 03:59N 32°49' E 035°01'0 0.0
2017-May-25 03:29N 32°49' E 035°01'0 0.0
2017-May-25 02:59N 32°49' E 035°01'0 0.0
2017-May-25 02:29N 32°49' E 035°01'0 0.0
2017-May-25 01:59N 32°49' E 035°01'0 0.0
2017-May-25 01:29N 32°49' E 035°01'0 0.0
2017-May-25 00:59N 32°49' E 035°01'0 0.0
2017-May-25 00:29N 32°49' E 035°01'0 0.0
2017-May-24 23:59N 32°49' E 035°01'0 0.0
2017-May-24 23:29N 32°49' E 035°01'0 0.0
2017-May-24 22:59N 32°49' E 035°01'0 0.0
2017-May-24 22:29N 32°49' E 035°01'0 0.0
2017-May-24 21:59N 32°49' E 035°01'0 0.0
2017-May-24 21:29N 32°49' E 035°01'0 0.0
2017-May-24 20:59N 32°49' E 035°01'0 0.0
2017-May-24 20:29N 32°49' E 035°01'0 0.0
2017-May-24 19:59N 32°49' E 035°01'0 0.0
2017-May-24 19:23N 32°49' E 035°01'0 0.0
2017-May-24 18:59N 32°49' E 035°01'0 0.0
2017-May-24 18:29N 32°49' E 035°01'0 0.2
2017-May-24 17:59N 32°49' E 035°01'1 2.1
2017-May-24 17:30N 32°50' E 035°01'2 4.7
2017-May-24 17:00N 32°52' E 034°59'2 4.3
2017-May-24 16:30N 32°53' E 034°57'3 6.1
2017-May-24 16:00N 32°53' E 034°54'3 5.1
2017-May-24 15:29N 32°52' E 034°50'1 1.6
2017-May-24 14:54N 32°51' E 034°50'5 9.5
2017-May-24 14:25N 32°47' E 034°49'9 9.6
2017-May-24 13:30N 32°38' E 034°46'612.7
2017-May-24 13:01N 32°32' E 034°44'1020.1
2017-May-24 12:30N 32°23' E 034°40'1121.3
2017-May-24 12:01N 32°12' E 034°37'2115.8
2017-May-24 10:40N 31°51' E 034°38'1 0.1
2017-May-23 14:39N 31°52' E 034°38'2311.7
2017-May-23 12:43N 32°08' E 034°19'3320.4
2017-May-23 11:06N 32°41' E 034°18'220.2
2017-May-23 11:00N 32°43' E 034°18'269 7.3
2017-May-21 21:55N 35°48' E 030°22'76220.8
2017-May-20 09:18N 36°25' E 014°40'722.2
2017-May-20 09:00N 36°26' E 014°32'1121.7
2017-May-20 08:30N 36°29' E 014°18'1021.2
2017-May-20 08:00N 36°32' E 014°06'1021.2
2017-May-20 07:30N 36°35' E 013°54'1421.3
2017-May-20 06:50N 36°39' E 013°36'721.0
2017-May-20 06:29N 36°41' E 013°27'1021.2
2017-May-20 06:00N 36°44' E 013°15'23121.0
2017-May-19 19:00N 38°20' E 008°50'  
Track history (hours):
 
Tides and Currents Weather Stations Pressure Air Temp Water Temp Dewpoint Dewpoint Depression Visibility Wind Speed Wind Dir Waves Ship Positions

Zim Qingdao

Last reported at 2017-May-29 18:28 UTC. Time now 2017-May-29 18:57 UTC.
Position N 37°57' E 023°36'.

Length 260.61 m; beam 32.25 m; draft 12.6 m.

Type: Ship (hazmat cat A). MMSI: 636012904.

Date/timePositionNaut miles runAvg speedWind from/ knotsBaromVisibWave heightAir tempDewpointWater temp
2017-May-29 18:28N 37°57' E 023°36'0 0.0
2017-May-29 17:58N 37°57' E 023°36'0 0.0
2017-May-29 17:28N 37°57' E 023°36'0 0.0
2017-May-29 16:58N 37°57' E 023°36'0 0.0
2017-May-29 16:28N 37°57' E 023°36'0 0.0
2017-May-29 15:58N 37°57' E 023°36'0 0.0
2017-May-29 15:25N 37°57' E 023°36'0 0.0
2017-May-29 14:58N 37°57' E 023°36'0 0.0
2017-May-29 14:28N 37°57' E 023°36'0 0.0
2017-May-29 13:28N 37°57' E 023°36'0 0.0
2017-May-29 12:58N 37°57' E 023°36'0 0.0
2017-May-29 12:28N 37°57' E 023°36'0 0.0
2017-May-29 11:58N 37°57' E 023°36'0 0.0
2017-May-29 11:28N 37°57' E 023°36'0 0.0
2017-May-29 10:58N 37°57' E 023°36'0 0.0
2017-May-29 10:28N 37°57' E 023°36'0 0.0
2017-May-29 09:58N 37°57' E 023°36'0 0.1
2017-May-29 09:28N 37°57' E 023°36'2 3.5
2017-May-29 09:00N 37°56' E 023°36'3 5.7
2017-May-29 08:30N 37°53' E 023°38'714.1
2017-May-29 08:00N 37°47' E 023°42'714.0
2017-May-29 07:30N 37°41' E 023°46'2414.1
2017-May-29 05:47N 37°43' E 024°17'75 2.0
2017-May-27 17:21N 37°41' E 025°51'1015.3
2017-May-27 16:42N 37°31' E 025°52'314.7
2017-May-27 16:30N 37°28' E 025°53'36315.0
2017-May-26 16:23N 34°04' E 032°03'616.5
2017-May-26 16:00N 34°01' E 032°09'816.7
2017-May-26 15:30N 33°57' E 032°18'1616.6
2017-May-26 14:34N 33°51' E 032°35'116.8
2017-May-26 14:30N 33°50' E 032°36'1716.7
2017-May-26 13:29N 33°43' E 032°55'816.4
2017-May-26 13:00N 33°39' E 033°03'3216.4
2017-May-26 11:03N 33°25' E 033°38'116.7
2017-May-26 11:00N 33°25' E 033°39'6016.3
2017-May-26 07:22N 32°59' E 034°43'616.4
2017-May-26 07:00N 32°56' E 034°49'816.5
2017-May-26 06:30N 32°53' E 034°58'4 8.5
2017-May-26 06:00N 32°49' E 035°01'0 0.3
2017-May-26 05:29N 32°49' E 035°01'0 0.0
2017-May-26 04:59N 32°49' E 035°01'0 0.0
2017-May-26 04:30N 32°49' E 035°01'0 0.0
2017-May-26 04:00N 32°49' E 035°01'0 0.0
2017-May-26 03:30N 32°49' E 035°01'0 0.0
2017-May-26 03:00N 32°49' E 035°01'0 0.0
2017-May-26 02:30N 32°49' E 035°01'0 0.0
2017-May-26 02:00N 32°49' E 035°01'0 0.0
2017-May-26 01:30N 32°49' E 035°01'0 0.0
2017-May-26 01:00N 32°49' E 035°01'0 0.0
2017-May-26 00:30N 32°49' E 035°01'0 0.0
2017-May-26 00:00N 32°49' E 035°01'0 0.0
2017-May-25 23:30N 32°49' E 035°01'0 0.0
2017-May-25 23:00N 32°49' E 035°01'0 0.0
2017-May-25 22:30N 32°49' E 035°01'0 0.0
2017-May-25 22:00N 32°49' E 035°01'0 0.0
2017-May-25 21:30N 32°49' E 035°01'0 0.0
2017-May-25 21:00N 32°49' E 035°01'0 0.0
2017-May-25 20:30N 32°49' E 035°01'0 0.0
2017-May-25 20:00N 32°49' E 035°01'0 0.0
2017-May-25 19:30N 32°49' E 035°01'0 0.0
2017-May-25 19:00N 32°49' E 035°01'0 0.0
2017-May-25 18:30N 32°49' E 035°01'0 0.0
2017-May-25 18:00N 32°49' E 035°01'0 0.0
2017-May-25 17:30N 32°49' E 035°01'0 0.0
2017-May-25 17:00N 32°49' E 035°01'0 0.0
2017-May-25 16:30N 32°49' E 035°01'0 0.0
2017-May-25 16:00N 32°49' E 035°01'0 0.0
2017-May-25 15:30N 32°49' E 035°01'0 0.0
2017-May-25 15:00N 32°49' E 035°01'0 0.0
2017-May-25 14:30N 32°49' E 035°01'0 0.0
2017-May-25 13:30N 32°49' E 035°01'0 0.0
2017-May-25 13:00N 32°49' E 035°01'0 0.0
2017-May-25 12:30N 32°49' E 035°01'0 0.0
2017-May-25 12:00N 32°49' E 035°01'0 0.0
2017-May-25 11:30N 32°49' E 035°01'0 0.0
2017-May-25 11:00N 32°49' E 035°01'0 0.0
2017-May-25 10:30N 32°49' E 035°01'0 0.0
2017-May-25 10:00N 32°49' E 035°01'0 0.0
2017-May-25 09:30N 32°49' E 035°01'0 0.0
2017-May-25 09:00N 32°49' E 035°01'0 0.0
2017-May-25 08:30N 32°49' E 035°01'0 0.0
2017-May-25 08:00N 32°49' E 035°01'0 0.0
2017-May-25 07:30N 32°49' E 035°01'0 0.0
2017-May-25 07:00N 32°49' E 035°01'0 0.0
2017-May-25 06:30N 32°49' E 035°01'0 0.0
2017-May-25 06:00N 32°49' E 035°01'0 0.0
2017-May-25 05:29N 32°49' E 035°01'0 0.0
2017-May-25 04:59N 32°49' E 035°01'0 0.0
2017-May-25 04:29N 32°49' E 035°01'0 0.0
2017-May-25 03:59N 32°49' E 035°01'0 0.0
2017-May-25 03:29N 32°49' E 035°01'0 0.0
2017-May-25 02:59N 32°49' E 035°01'0 0.0
2017-May-25 02:29N 32°49' E 035°01'0 0.0
2017-May-25 01:59N 32°49' E 035°01'0 0.0
2017-May-25 01:29N 32°49' E 035°01'0 0.0
2017-May-25 00:59N 32°49' E 035°01'0 0.0
2017-May-25 00:29N 32°49' E 035°01'0 0.0
2017-May-24 23:59N 32°49' E 035°01'0 0.0
2017-May-24 23:29N 32°49' E 035°01'0 0.0
2017-May-24 22:59N 32°49' E 035°01'0 0.0
2017-May-24 22:29N 32°49' E 035°01'0 0.0
2017-May-24 21:59N 32°49' E 035°01'0 0.0
2017-May-24 21:29N 32°49' E 035°01'0 0.0
2017-May-24 20:59N 32°49' E 035°01'0 0.0
2017-May-24 20:29N 32°49' E 035°01'0 0.0
2017-May-24 19:59N 32°49' E 035°01'0 0.0
2017-May-24 19:23N 32°49' E 035°01'0 0.0
2017-May-24 18:59N 32°49' E 035°01'0 0.0
2017-May-24 18:29N 32°49' E 035°01'0 0.2
2017-May-24 17:59N 32°49' E 035°01'1 2.1
2017-May-24 17:30N 32°50' E 035°01'2 4.7
2017-May-24 17:00N 32°52' E 034°59'2 4.3
2017-May-24 16:30N 32°53' E 034°57'3 6.1
2017-May-24 16:00N 32°53' E 034°54'3 5.1
2017-May-24 15:29N 32°52' E 034°50'1 1.6
2017-May-24 14:54N 32°51' E 034°50'5 9.5
2017-May-24 14:25N 32°47' E 034°49'9 9.6
2017-May-24 13:30N 32°38' E 034°46'612.7
2017-May-24 13:01N 32°32' E 034°44'1020.1
2017-May-24 12:30N 32°23' E 034°40'1121.3
2017-May-24 12:01N 32°12' E 034°37'2115.8
2017-May-24 10:40N 31°51' E 034°38'1 0.1
2017-May-23 14:39N 31°52' E 034°38'2311.7
2017-May-23 12:43N 32°08' E 034°19'3320.4
2017-May-23 11:06N 32°41' E 034°18'220.2
2017-May-23 11:00N 32°43' E 034°18'269 7.3
2017-May-21 21:55N 35°48' E 030°22'76220.8
2017-May-20 09:18N 36°25' E 014°40'722.2
2017-May-20 09:00N 36°26' E 014°32'1121.7
2017-May-20 08:30N 36°29' E 014°18'1021.2
2017-May-20 08:00N 36°32' E 014°06'1021.2
2017-May-20 07:30N 36°35' E 013°54'1421.3
2017-May-20 06:50N 36°39' E 013°36'721.0
2017-May-20 06:29N 36°41' E 013°27'1021.2
2017-May-20 06:00N 36°44' E 013°15'23121.0
2017-May-19 19:00N 38°20' E 008°50'  

Dump ship's entire track history